createdAt,value
2017-06-02T00:01:25.218Z,24.70
2017-06-02T00:03:53.606Z,24.60
2017-06-02T00:06:21.936Z,24.60
2017-06-02T00:08:50.272Z,24.50
2017-06-02T00:11:18.575Z,24.50
2017-06-02T00:13:46.931Z,24.50
2017-06-02T00:16:15.218Z,24.40
2017-06-02T00:18:43.554Z,24.30
2017-06-02T00:21:11.897Z,24.30
2017-06-02T00:23:39.438Z,24.30
2017-06-02T00:26:07.778Z,24.30
2017-06-02T00:28:36.153Z,24.30
2017-06-02T00:31:04.470Z,24.30
2017-06-02T00:33:32.830Z,24.20
2017-06-02T00:36:01.168Z,24.20
2017-06-02T00:38:29.503Z,24.10
2017-06-02T00:40:57.824Z,24.10
2017-06-02T00:43:26.173Z,24.00
2017-06-02T00:45:53.780Z,24.00
2017-06-02T00:48:22.144Z,23.80
2017-06-02T00:50:50.502Z,23.80
2017-06-02T00:53:18.842Z,23.80
2017-06-02T00:55:47.195Z,23.80
2017-06-02T00:58:15.540Z,23.70
2017-06-02T01:00:43.831Z,23.60
2017-06-02T01:03:12.183Z,23.60
2017-06-02T01:05:40.506Z,23.50
2017-06-02T01:08:08.839Z,23.50
2017-06-02T01:10:37.145Z,23.50
2017-06-02T01:13:05.504Z,23.40
2017-06-02T01:15:33.827Z,23.40
2017-06-02T01:18:02.204Z,23.50
2017-06-02T01:20:30.524Z,23.50
2017-06-02T01:22:58.928Z,23.40
2017-06-02T01:25:27.259Z,23.40
2017-06-02T01:27:55.578Z,23.40
2017-06-02T01:30:23.885Z,23.40
2017-06-02T01:32:52.183Z,23.50
2017-06-02T01:35:20.517Z,23.50
2017-06-02T01:37:48.835Z,23.50
2017-06-02T01:40:17.228Z,23.40
2017-06-02T01:42:45.549Z,23.50
2017-06-02T01:45:13.878Z,23.50
2017-06-02T01:47:42.201Z,23.60
2017-06-02T01:50:10.537Z,23.60
2017-06-02T01:52:38.853Z,23.60
2017-06-02T01:55:07.185Z,23.60
2017-06-02T01:57:35.491Z,23.60
2017-06-02T02:00:03.860Z,23.70
2017-06-02T02:02:32.281Z,23.70
2017-06-02T02:05:00.605Z,23.70
2017-06-02T02:07:28.925Z,23.70
2017-06-02T02:09:57.216Z,23.70
2017-06-02T02:12:25.530Z,23.70
2017-06-02T02:14:53.815Z,23.70
2017-06-02T02:17:22.171Z,23.70
2017-06-02T02:19:50.468Z,23.60
2017-06-02T02:22:18.779Z,23.60
2017-06-02T02:24:47.137Z,23.50
2017-06-02T02:27:15.526Z,23.50
2017-06-02T02:29:43.842Z,23.50
2017-06-02T02:32:12.191Z,23.50
2017-06-02T02:34:40.493Z,23.50
2017-06-02T02:37:08.856Z,23.40
2017-06-02T02:39:37.164Z,23.40
2017-06-02T02:42:05.470Z,23.40
2017-06-02T02:44:33.808Z,23.40
2017-06-02T02:47:02.106Z,23.40
2017-06-02T02:49:30.417Z,23.40
2017-06-02T02:51:58.701Z,23.40
2017-06-02T02:54:27.036Z,23.30
2017-06-02T02:56:55.326Z,23.30
2017-06-02T02:59:23.684Z,23.20
2017-06-02T03:01:52.011Z,23.20
2017-06-02T03:04:20.363Z,23.20
2017-06-02T03:06:48.726Z,23.30
2017-06-02T03:09:17.036Z,23.20
2017-06-02T03:11:45.357Z,23.20
2017-06-02T03:14:13.675Z,23.20
2017-06-02T03:16:42.020Z,23.20
2017-06-02T03:19:10.342Z,23.20
2017-06-02T03:21:38.670Z,23.20
2017-06-02T03:24:07.001Z,23.20
2017-06-02T03:26:34.571Z,23.10
2017-06-02T03:29:02.944Z,23.10
2017-06-02T03:31:31.329Z,23.10
2017-06-02T03:33:59.630Z,23.00
2017-06-02T03:36:28.124Z,23.00
2017-06-02T03:38:56.461Z,23.00
2017-06-02T03:41:24.829Z,23.00
2017-06-02T03:43:53.267Z,23.00
2017-06-02T03:46:20.778Z,22.90
2017-06-02T03:48:49.122Z,22.90
2017-06-02T03:51:17.419Z,23.00
2017-06-02T03:53:45.774Z,22.90
2017-06-02T03:56:14.058Z,22.90
2017-06-02T03:58:42.399Z,23.00
2017-06-02T04:01:10.725Z,22.90
2017-06-02T04:03:39.019Z,22.90
2017-06-02T04:06:07.292Z,22.90
2017-06-02T04:08:38.579Z,22.90
2017-06-02T04:11:06.868Z,23.00
2017-06-02T04:13:35.318Z,23.10
2017-06-02T04:16:03.712Z,23.10
2017-06-02T04:18:32.024Z,23.10
2017-06-02T04:21:00.334Z,23.20
2017-06-02T04:23:28.622Z,23.20
2017-06-02T04:25:56.965Z,23.30
2017-06-02T04:28:25.295Z,23.30
2017-06-02T04:30:53.628Z,23.30
2017-06-02T04:33:21.930Z,23.40
2017-06-02T04:35:50.224Z,23.40
2017-06-02T04:38:18.511Z,23.50
2017-06-02T04:40:46.876Z,23.50
2017-06-02T04:43:15.171Z,23.50
2017-06-02T04:45:43.498Z,23.60
2017-06-02T04:48:11.828Z,23.60
2017-06-02T04:50:40.159Z,23.70
2017-06-02T04:53:08.472Z,23.70
2017-06-02T04:55:36.770Z,23.80
2017-06-02T04:58:05.082Z,23.80
2017-06-02T05:00:33.391Z,23.90
2017-06-02T05:03:01.753Z,24.00
2017-06-02T05:05:30.059Z,24.10
2017-06-02T05:07:58.386Z,24.10
2017-06-02T05:10:26.722Z,24.10
2017-06-02T05:12:55.188Z,24.20
2017-06-02T05:15:23.506Z,24.30
2017-06-02T05:17:51.824Z,24.40
2017-06-02T05:20:20.135Z,24.40
2017-06-02T05:22:48.726Z,24.60
2017-06-02T05:25:17.058Z,24.70
2017-06-02T05:27:45.412Z,24.80
2017-06-02T05:30:13.769Z,24.80
2017-06-02T05:32:42.098Z,24.80
2017-06-02T05:35:10.593Z,24.90
2017-06-02T05:37:38.906Z,25.00
2017-06-02T05:40:07.252Z,25.10
2017-06-02T05:42:34.787Z,25.10
2017-06-02T05:45:02.366Z,25.20
2017-06-02T05:47:29.899Z,25.30
2017-06-02T05:49:58.216Z,25.30
2017-06-02T05:52:26.584Z,25.40
2017-06-02T05:54:54.890Z,25.50
2017-06-02T05:57:23.297Z,25.50
2017-06-02T05:59:51.625Z,25.60
2017-06-02T06:02:21.007Z,25.60
2017-06-02T06:05:00.158Z,25.70
2017-06-02T06:07:28.487Z,25.70
2017-06-02T06:09:56.793Z,25.80
2017-06-02T06:12:25.135Z,26.00
2017-06-02T06:14:53.417Z,26.10
2017-06-02T06:17:21.819Z,26.20
2017-06-02T06:19:50.134Z,26.30
2017-06-02T06:22:18.513Z,26.40
2017-06-02T06:24:46.868Z,26.60
2017-06-02T06:27:15.180Z,26.80
2017-06-02T06:29:43.498Z,27.00
2017-06-02T06:32:11.780Z,27.20
2017-06-02T06:34:40.093Z,27.30
2017-06-02T06:37:08.403Z,27.70
2017-06-02T06:39:36.783Z,28.40
2017-06-02T06:42:05.190Z,29.90
2017-06-02T06:44:33.572Z,31.60
2017-06-02T06:47:01.896Z,33.20
2017-06-02T06:49:30.319Z,34.70
2017-06-02T06:51:58.645Z,36.00
2017-06-02T06:54:26.977Z,37.20
2017-06-02T06:56:55.308Z,38.10
2017-06-02T06:59:22.832Z,38.10
2017-06-02T07:01:51.159Z,39.80
2017-06-02T07:04:19.530Z,40.30
2017-06-02T07:06:47.871Z,40.90
2017-06-02T07:09:16.179Z,41.50
2017-06-02T07:11:44.521Z,42.00
2017-06-02T07:14:12.961Z,42.40
2017-06-02T07:16:41.280Z,42.80
2017-06-02T07:19:09.666Z,42.90
2017-06-02T07:21:38.090Z,42.60
2017-06-02T07:24:06.419Z,42.70
2017-06-02T07:26:34.703Z,42.40
2017-06-02T07:29:03.012Z,42.00
2017-06-02T07:31:31.356Z,41.70
2017-06-02T07:33:59.702Z,42.10
2017-06-02T07:36:28.003Z,42.20
2017-06-02T07:38:56.333Z,42.10
2017-06-02T07:41:24.626Z,42.40
2017-06-02T07:43:52.963Z,42.50
2017-06-02T07:46:21.286Z,42.10
2017-06-02T07:48:49.606Z,41.50
2017-06-02T07:51:17.906Z,41.40
2017-06-02T07:53:46.241Z,41.70
2017-06-02T07:56:14.550Z,42.20
2017-06-02T07:58:42.868Z,42.50
2017-06-02T08:01:11.170Z,42.80
2017-06-02T08:03:39.493Z,42.50
2017-06-02T08:06:07.799Z,41.80
2017-06-02T08:08:36.251Z,41.10
2017-06-02T08:11:04.582Z,40.50
2017-06-02T08:13:32.901Z,40.20
2017-06-02T08:16:01.448Z,39.60
2017-06-02T08:18:29.730Z,38.70
2017-06-02T08:20:58.033Z,38.00
2017-06-02T08:23:26.336Z,37.60
2017-06-02T08:25:54.642Z,37.00
2017-06-02T08:28:23.044Z,36.40
2017-06-02T08:30:51.335Z,35.70
2017-06-02T08:33:19.648Z,35.20
2017-06-02T08:35:47.926Z,34.90
2017-06-02T08:38:16.250Z,34.60
2017-06-02T08:40:44.553Z,34.70
2017-06-02T08:43:12.876Z,34.90
2017-06-02T08:45:41.242Z,35.00
2017-06-02T08:48:09.523Z,35.20
2017-06-02T08:50:37.898Z,35.40
2017-06-02T08:53:06.195Z,35.50
2017-06-02T08:55:34.617Z,35.60
2017-06-02T08:58:02.899Z,35.70
2017-06-02T09:00:31.232Z,35.80
2017-06-02T09:02:59.526Z,35.80
2017-06-02T09:05:27.867Z,35.90
2017-06-02T09:07:56.161Z,36.00
2017-06-02T09:10:24.534Z,36.10
2017-06-02T09:12:52.861Z,36.20
2017-06-02T09:15:21.166Z,36.20
2017-06-02T09:17:49.475Z,36.20
2017-06-02T09:20:17.040Z,36.20
2017-06-02T09:22:46.228Z,36.20
2017-06-02T09:25:14.533Z,36.10
2017-06-02T09:27:42.870Z,36.00
2017-06-02T09:30:11.245Z,36.20
2017-06-02T09:32:39.582Z,36.40
2017-06-02T09:35:07.882Z,36.50
2017-06-02T09:37:35.460Z,36.50
2017-06-02T09:40:03.730Z,36.60
2017-06-02T09:42:32.118Z,36.70
2017-06-02T09:45:00.433Z,36.70
2017-06-02T09:47:28.805Z,36.90
2017-06-02T09:49:57.155Z,36.90
2017-06-02T09:52:25.468Z,37.00
2017-06-02T09:54:53.794Z,37.10
2017-06-02T09:57:22.078Z,37.10
2017-06-02T09:59:50.433Z,37.30
2017-06-02T10:02:18.786Z,37.40
2017-06-02T10:04:47.108Z,37.60
2017-06-02T10:07:15.438Z,37.70
2017-06-02T10:09:43.763Z,37.60
2017-06-02T10:12:12.107Z,37.70
2017-06-02T10:14:40.425Z,37.80
2017-06-02T10:17:08.762Z,37.80
2017-06-02T10:19:37.138Z,37.90
2017-06-02T10:22:05.535Z,37.90
2017-06-02T10:24:33.824Z,38.00
2017-06-02T10:27:01.366Z,38.00
2017-06-02T10:29:29.668Z,38.10
2017-06-02T10:31:57.964Z,38.20
2017-06-02T10:34:26.284Z,38.10
2017-06-02T10:36:54.562Z,38.10
2017-06-02T10:39:22.939Z,38.00
2017-06-02T10:41:51.268Z,38.10
2017-06-02T10:44:19.597Z,38.00
2017-06-02T10:46:47.917Z,38.10
2017-06-02T10:49:16.265Z,38.30
2017-06-02T10:51:44.613Z,38.40
2017-06-02T10:54:13.016Z,38.50
2017-06-02T10:56:41.346Z,38.40
2017-06-02T10:59:09.636Z,38.60
2017-06-02T11:01:37.991Z,38.50
2017-06-02T11:04:06.587Z,38.50
2017-06-02T11:06:34.910Z,38.40
2017-06-02T11:09:03.238Z,38.40
2017-06-02T11:11:31.580Z,38.40
2017-06-02T11:14:00.955Z,38.60
2017-06-02T11:16:29.305Z,38.70
2017-06-02T11:18:57.621Z,38.80
2017-06-02T11:21:25.961Z,38.90
2017-06-02T11:23:54.269Z,39.10
2017-06-02T11:26:22.582Z,39.20
2017-06-02T11:28:50.902Z,39.20
2017-06-02T11:31:19.185Z,39.30
2017-06-02T11:33:47.499Z,39.40
2017-06-02T11:36:15.809Z,39.40
2017-06-02T11:38:44.119Z,39.40
2017-06-02T11:41:12.408Z,39.50
2017-06-02T11:43:40.724Z,39.60
2017-06-02T11:46:09.051Z,39.70
2017-06-02T11:48:37.394Z,39.90
2017-06-02T11:51:05.672Z,39.40
2017-06-02T11:53:33.983Z,39.10
2017-06-02T11:56:02.286Z,39.20
2017-06-02T11:58:30.566Z,39.40
2017-06-02T12:00:58.121Z,39.40
2017-06-02T12:03:26.499Z,39.70
2017-06-02T12:05:54.960Z,39.80
2017-06-02T12:08:23.311Z,39.90
2017-06-02T12:10:51.624Z,39.90
2017-06-02T12:13:19.998Z,39.90
2017-06-02T12:15:48.315Z,39.90
2017-06-02T12:18:16.674Z,39.80
2017-06-02T12:20:44.996Z,39.80
2017-06-02T12:23:13.340Z,39.80
2017-06-02T12:25:41.631Z,39.40
2017-06-02T12:28:09.953Z,39.20
2017-06-02T12:30:38.264Z,39.00
2017-06-02T12:33:06.637Z,39.00
2017-06-02T12:35:34.906Z,38.70
2017-06-02T12:38:03.239Z,38.40
2017-06-02T12:40:31.530Z,37.90
2017-06-02T12:42:59.847Z,37.40
2017-06-02T12:45:28.181Z,37.10
2017-06-02T12:47:56.460Z,36.90
2017-06-02T12:50:24.782Z,36.80
2017-06-02T12:52:53.069Z,36.90
2017-06-02T12:55:20.667Z,36.90
2017-06-02T12:57:48.956Z,37.00
2017-06-02T13:00:17.283Z,36.70
2017-06-02T13:02:45.589Z,36.50
2017-06-02T13:05:13.894Z,36.50
2017-06-02T13:07:42.211Z,36.60
2017-06-02T13:10:19.511Z,36.60
2017-06-02T13:12:47.874Z,37.30
2017-06-02T13:15:16.173Z,37.50
2017-06-02T13:17:44.500Z,37.70
2017-06-02T13:20:12.048Z,37.70
2017-06-02T13:22:40.356Z,37.90
2017-06-02T13:25:08.670Z,38.00
2017-06-02T13:27:36.962Z,38.20
2017-06-02T13:30:05.292Z,38.10
2017-06-02T13:32:33.582Z,38.00
2017-06-02T13:35:01.915Z,37.90
2017-06-02T13:37:30.214Z,37.80
2017-06-02T13:39:58.523Z,38.00
2017-06-02T13:42:26.798Z,37.90
2017-06-02T13:44:55.120Z,37.60
2017-06-02T13:47:23.478Z,37.70
2017-06-02T13:49:51.842Z,37.80
2017-06-02T13:52:20.123Z,37.70
2017-06-02T13:54:48.398Z,37.80
2017-06-02T13:57:16.703Z,37.80
2017-06-02T13:59:45.007Z,37.90
2017-06-02T14:02:12.591Z,37.90
2017-06-02T14:04:40.931Z,38.00
2017-06-02T14:07:09.255Z,38.00
2017-06-02T14:09:37.547Z,37.90
2017-06-02T14:12:05.112Z,37.90
2017-06-02T14:14:33.443Z,37.90
2017-06-02T14:17:01.047Z,37.90
2017-06-02T14:19:28.603Z,37.90
2017-06-02T14:21:56.982Z,37.80
2017-06-02T14:24:25.348Z,37.70
2017-06-02T14:26:52.971Z,37.70
2017-06-02T14:29:21.294Z,37.40
2017-06-02T14:31:49.665Z,37.40
2017-06-02T14:34:18.052Z,37.50
2017-06-02T14:36:45.647Z,37.50
2017-06-02T14:39:13.997Z,37.60
2017-06-02T14:41:41.560Z,37.60
2017-06-02T14:44:09.090Z,37.50
2017-06-02T14:46:36.662Z,37.20
2017-06-02T14:49:04.985Z,37.50
2017-06-02T14:51:33.322Z,37.60
2017-06-02T14:54:00.854Z,37.50
2017-06-02T14:56:29.227Z,37.20
2017-06-02T14:58:57.561Z,37.00
2017-06-02T15:01:25.881Z,36.80
2017-06-02T15:03:54.165Z,36.60
2017-06-02T15:06:21.732Z,36.60
2017-06-02T15:08:50.037Z,36.70
2017-06-02T15:11:18.358Z,36.60
2017-06-02T15:13:45.915Z,36.60
2017-06-02T15:16:14.254Z,36.60
2017-06-02T15:18:41.797Z,36.60
2017-06-02T15:21:10.092Z,36.50
2017-06-02T15:23:37.606Z,36.40
2017-06-02T15:26:05.986Z,36.40
2017-06-02T15:28:34.295Z,36.50
2017-06-02T15:31:01.955Z,36.50
2017-06-02T15:33:30.252Z,36.50
2017-06-02T15:35:57.801Z,36.50
2017-06-02T15:38:26.137Z,36.50
2017-06-02T15:40:54.468Z,36.30
2017-06-02T15:43:22.756Z,36.30
2017-06-02T15:45:51.053Z,36.20
2017-06-02T15:48:19.387Z,36.20
2017-06-02T15:50:47.693Z,36.00
2017-06-02T15:53:16.020Z,35.90
2017-06-02T15:55:44.306Z,35.70
2017-06-02T15:58:12.678Z,35.60
2017-06-02T16:00:40.956Z,35.60
2017-06-02T16:03:09.268Z,35.40
2017-06-02T16:05:37.571Z,35.30
2017-06-02T16:08:05.891Z,35.20
2017-06-02T16:10:34.187Z,35.00
2017-06-02T16:13:02.496Z,34.90
2017-06-02T16:15:30.776Z,34.60
2017-06-02T16:17:59.083Z,34.40
2017-06-02T16:20:27.369Z,34.40
2017-06-02T16:22:55.729Z,34.40
2017-06-02T16:25:24.035Z,34.30
2017-06-02T16:27:52.350Z,34.30
2017-06-02T16:30:20.641Z,33.90
2017-06-02T16:32:49.070Z,33.90
2017-06-02T16:35:18.476Z,33.80
2017-06-02T16:37:46.784Z,33.80
2017-06-02T16:40:15.590Z,33.90
2017-06-02T16:42:43.901Z,33.90
2017-06-02T16:45:12.202Z,33.90
2017-06-02T16:47:40.528Z,34.00
2017-06-02T16:50:08.898Z,34.30
2017-06-02T16:52:37.213Z,34.50
2017-06-02T16:55:05.509Z,34.50
2017-06-02T16:57:33.846Z,34.10
2017-06-02T17:00:02.144Z,34.10
2017-06-02T17:02:30.481Z,34.10
2017-06-02T17:04:58.797Z,34.00
2017-06-02T17:07:27.095Z,34.00
2017-06-02T17:09:55.419Z,34.10
2017-06-02T17:12:23.733Z,34.10
2017-06-02T17:14:52.047Z,34.10
2017-06-02T17:17:20.339Z,34.00
2017-06-02T17:19:48.677Z,34.10
2017-06-02T17:22:16.967Z,34.10
2017-06-02T17:24:45.324Z,33.90
2017-06-02T17:27:13.663Z,33.90
2017-06-02T17:29:42.114Z,33.80
2017-06-02T17:32:10.438Z,33.60
2017-06-02T17:34:38.785Z,33.50
2017-06-02T17:37:07.143Z,33.50
2017-06-02T17:39:35.450Z,33.30
2017-06-02T17:42:03.817Z,33.30
2017-06-02T17:44:32.169Z,33.10
2017-06-02T17:47:00.472Z,33.00
2017-06-02T17:49:28.770Z,32.90
2017-06-02T17:51:57.175Z,32.90
2017-06-02T17:54:25.467Z,32.80
2017-06-02T17:56:53.791Z,32.80
2017-06-02T17:59:22.147Z,32.70
2017-06-02T18:01:50.446Z,32.70
2017-06-02T18:04:18.776Z,32.70
2017-06-02T18:06:47.107Z,32.60
2017-06-02T18:09:15.426Z,32.60
2017-06-02T18:11:43.782Z,32.60
2017-06-02T18:14:12.114Z,32.50
2017-06-02T18:17:09.970Z,32.50
2017-06-02T18:19:37.495Z,32.30
2017-06-02T18:22:05.791Z,32.30
2017-06-02T18:24:33.290Z,32.30
2017-06-02T18:27:00.826Z,32.30
2017-06-02T18:29:28.330Z,32.20
2017-06-02T18:31:55.888Z,32.10
2017-06-02T18:34:23.762Z,32.10
2017-06-02T18:36:51.354Z,31.70
2017-06-02T18:39:19.629Z,30.40
2017-06-02T18:41:47.943Z,29.70
2017-06-02T18:44:15.502Z,29.60
2017-06-02T18:46:43.069Z,29.50
2017-06-02T18:49:10.604Z,29.80
2017-06-02T18:51:38.145Z,29.50
2017-06-02T18:54:06.427Z,28.30
2017-06-02T18:56:33.997Z,28.30
2017-06-02T18:59:01.538Z,27.50
2017-06-02T19:01:29.110Z,27.00
2017-06-02T19:03:56.987Z,26.90
2017-06-02T19:06:24.542Z,26.50
2017-06-02T19:08:52.098Z,25.80
2017-06-02T19:11:19.667Z,25.70
2017-06-02T19:13:47.182Z,25.70
2017-06-02T19:16:14.753Z,25.90
2017-06-02T19:18:42.333Z,26.10
2017-06-02T19:21:10.763Z,26.40
2017-06-02T19:23:38.294Z,26.30
2017-06-02T19:26:05.868Z,26.50
2017-06-02T19:28:33.411Z,26.30
2017-06-02T19:31:00.963Z,26.30
2017-06-02T19:33:28.522Z,26.40
2017-06-02T19:35:56.110Z,26.40
2017-06-02T19:38:23.731Z,26.30
2017-06-02T19:40:52.038Z,26.20
2017-06-02T19:43:19.608Z,26.20
2017-06-02T19:45:47.109Z,26.30
2017-06-02T19:48:14.627Z,26.00
2017-06-02T19:50:42.176Z,25.90
2017-06-02T19:53:09.720Z,26.10
2017-06-02T19:55:37.310Z,26.10
2017-06-02T19:58:04.883Z,26.20
2017-06-02T20:00:32.408Z,26.20
2017-06-02T20:02:59.958Z,26.10
2017-06-02T20:05:27.522Z,26.10
2017-06-02T20:07:55.096Z,26.10
2017-06-02T20:10:22.642Z,25.90
2017-06-02T20:12:50.170Z,25.60
2017-06-02T20:15:17.699Z,25.40
2017-06-02T20:17:45.207Z,25.10
2017-06-02T20:20:13.502Z,25.20
2017-06-02T20:22:41.024Z,25.10
2017-06-02T20:25:08.554Z,25.30
2017-06-02T20:27:36.107Z,25.30
2017-06-02T20:30:03.671Z,25.30
2017-06-02T20:32:31.195Z,25.30
2017-06-02T20:34:58.737Z,25.30
2017-06-02T20:37:27.029Z,25.20
2017-06-02T20:39:54.611Z,25.20
2017-06-02T20:42:22.213Z,25.40
2017-06-02T20:44:49.735Z,25.40
2017-06-02T20:47:17.274Z,25.40
2017-06-02T20:49:44.861Z,25.40
2017-06-02T20:52:12.390Z,25.50
2017-06-02T20:54:40.672Z,25.50
2017-06-02T20:57:08.240Z,25.40
2017-06-02T20:59:35.769Z,25.40
2017-06-02T21:02:04.108Z,25.30
2017-06-02T21:04:31.688Z,25.20
2017-06-02T21:06:59.243Z,25.30
2017-06-02T21:09:26.816Z,25.30
2017-06-02T21:11:54.394Z,25.30
2017-06-02T21:14:22.759Z,25.20
2017-06-02T21:16:50.299Z,25.20
2017-06-02T21:19:17.856Z,25.20
2017-06-02T21:21:45.415Z,25.30
2017-06-02T21:24:13.012Z,25.30
2017-06-02T21:26:41.355Z,25.50
2017-06-02T21:29:08.903Z,25.50
2017-06-02T21:31:36.456Z,25.60
2017-06-02T21:34:04.040Z,25.60
2017-06-02T21:36:31.595Z,25.60
2017-06-02T21:38:59.138Z,25.60
2017-06-02T21:41:26.703Z,25.60
2017-06-02T21:43:54.258Z,25.60
2017-06-02T21:46:21.821Z,25.60
2017-06-02T21:48:49.370Z,25.50
2017-06-02T21:51:16.911Z,25.50
2017-06-02T21:53:44.444Z,25.50
2017-06-02T21:56:12.771Z,25.40
2017-06-02T21:58:40.298Z,25.40
2017-06-02T22:01:07.826Z,25.40
2017-06-02T22:03:35.391Z,25.40
2017-06-02T22:06:02.924Z,25.40
2017-06-02T22:08:30.511Z,25.40
2017-06-02T22:10:58.051Z,25.40
2017-06-02T22:13:25.635Z,25.30
2017-06-02T22:15:53.174Z,25.30
2017-06-02T22:18:20.764Z,25.30
2017-06-02T22:20:49.078Z,25.30
2017-06-02T22:23:16.619Z,25.30
2017-06-02T22:25:44.177Z,25.30
2017-06-02T22:28:11.791Z,25.00
2017-06-02T22:30:39.330Z,25.00
2017-06-02T22:33:06.948Z,25.10
2017-06-02T22:35:35.226Z,24.90
2017-06-02T22:38:03.567Z,24.90
2017-06-02T22:40:31.117Z,24.80
2017-06-02T22:42:58.671Z,24.80
2017-06-02T22:45:26.187Z,24.80
2017-06-02T22:47:54.514Z,24.80
2017-06-02T22:50:22.061Z,24.80
2017-06-02T22:52:49.639Z,24.90
2017-06-02T22:55:17.189Z,24.90
2017-06-02T22:57:44.752Z,24.90
2017-06-02T23:00:12.283Z,24.80
2017-06-02T23:02:39.868Z,24.80
2017-06-02T23:05:07.402Z,24.90
2017-06-02T23:07:34.995Z,24.90
2017-06-02T23:10:02.526Z,24.90
2017-06-02T23:12:30.120Z,24.90
2017-06-02T23:14:57.649Z,24.90
2017-06-02T23:17:25.217Z,24.90
2017-06-02T23:19:52.759Z,24.90
2017-06-02T23:22:20.395Z,24.90
2017-06-02T23:24:47.916Z,24.80
2017-06-02T23:27:15.471Z,24.90
2017-06-02T23:29:42.978Z,24.80
2017-06-02T23:32:11.308Z,24.90
2017-06-02T23:34:38.835Z,24.90
2017-06-02T23:37:07.153Z,24.90
2017-06-02T23:39:34.666Z,24.90
2017-06-02T23:42:02.982Z,24.90
2017-06-02T23:44:30.501Z,24.90
2017-06-02T23:46:58.068Z,24.90
2017-06-02T23:49:25.594Z,24.70
2017-06-02T23:51:53.135Z,24.70
2017-06-02T23:54:20.652Z,24.80
2017-06-02T23:56:48.211Z,24.70
2017-06-02T23:59:15.734Z,24.70
